sensor_id;sensor_type;location;lat;lon;timestamp;P1;durP1;ratioP1;P2;durP2;ratioP2
4762;SDS011;2395;50.738;7.122;2022-07-12T00:00:48;28.30;;;25.40;;
4762;SDS011;2395;50.738;7.122;2022-07-12T00:03:16;29.40;;;26.43;;
4762;SDS011;2395;50.738;7.122;2022-07-12T00:05:44;28.50;;;25.50;;
4762;SDS011;2395;50.738;7.122;2022-07-12T00:08:11;28.00;;;25.20;;
4762;SDS011;2395;50.738;7.122;2022-07-12T00:10:38;28.00;;;25.30;;
4762;SDS011;2395;50.738;7.122;2022-07-12T00:13:05;28.97;;;25.87;;
4762;SDS011;2395;50.738;7.122;2022-07-12T00:15:32;28.73;;;25.83;;
4762;SDS011;2395;50.738;7.122;2022-07-12T00:17:59;30.07;;;27.00;;
4762;SDS011;2395;50.738;7.122;2022-07-12T00:20:28;30.10;;;27.03;;
4762;SDS011;2395;50.738;7.122;2022-07-12T00:22:55;32.37;;;28.97;;
4762;SDS011;2395;50.738;7.122;2022-07-12T00:25:22;31.73;;;28.50;;
4762;SDS011;2395;50.738;7.122;2022-07-12T00:27:51;28.40;;;25.50;;
4762;SDS011;2395;50.738;7.122;2022-07-12T00:30:18;30.83;;;27.53;;
4762;SDS011;2395;50.738;7.122;2022-07-12T00:32:45;30.77;;;27.47;;
4762;SDS011;2395;50.738;7.122;2022-07-12T00:35:13;29.70;;;26.70;;
4762;SDS011;2395;50.738;7.122;2022-07-12T00:37:42;31.20;;;27.90;;
4762;SDS011;2395;50.738;7.122;2022-07-12T00:40:10;32.23;;;29.07;;
4762;SDS011;2395;50.738;7.122;2022-07-12T00:42:38;31.80;;;28.50;;
4762;SDS011;2395;50.738;7.122;2022-07-12T00:45:05;30.80;;;27.50;;
4762;SDS011;2395;50.738;7.122;2022-07-12T00:47:35;33.57;;;29.00;;
4762;SDS011;2395;50.738;7.122;2022-07-12T00:50:08;31.50;;;27.67;;
4762;SDS011;2395;50.738;7.122;2022-07-12T00:52:37;30.47;;;27.37;;
4762;SDS011;2395;50.738;7.122;2022-07-12T00:55:07;30.70;;;27.53;;
4762;SDS011;2395;50.738;7.122;2022-07-12T00:57:35;30.43;;;27.33;;
4762;SDS011;2395;50.738;7.122;2022-07-12T01:00:04;30.70;;;27.70;;
4762;SDS011;2395;50.738;7.122;2022-07-12T01:02:34;32.60;;;28.60;;
4762;SDS011;2395;50.738;7.122;2022-07-12T01:05:03;31.53;;;28.33;;
4762;SDS011;2395;50.738;7.122;2022-07-12T01:07:32;32.40;;;27.80;;
4762;SDS011;2395;50.738;7.122;2022-07-12T01:10:04;32.40;;;29.00;;
4762;SDS011;2395;50.738;7.122;2022-07-12T01:12:34;31.43;;;28.03;;
4762;SDS011;2395;50.738;7.122;2022-07-12T01:15:03;32.70;;;29.30;;
4762;SDS011;2395;50.738;7.122;2022-07-12T01:17:32;32.53;;;28.80;;
4762;SDS011;2395;50.738;7.122;2022-07-12T01:19:59;30.83;;;27.67;;
4762;SDS011;2395;50.738;7.122;2022-07-12T01:22:29;32.03;;;28.73;;
4762;SDS011;2395;50.738;7.122;2022-07-12T01:25:00;30.33;;;27.23;;
4762;SDS011;2395;50.738;7.122;2022-07-12T01:27:29;31.93;;;28.43;;
4762;SDS011;2395;50.738;7.122;2022-07-12T01:29:57;34.53;;;29.90;;
4762;SDS011;2395;50.738;7.122;2022-07-12T01:32:24;32.80;;;29.30;;
4762;SDS011;2395;50.738;7.122;2022-07-12T01:34:52;32.90;;;29.60;;
4762;SDS011;2395;50.738;7.122;2022-07-12T01:37:21;33.90;;;30.20;;
4762;SDS011;2395;50.738;7.122;2022-07-12T01:39:51;32.70;;;29.30;;
4762;SDS011;2395;50.738;7.122;2022-07-12T01:42:22;32.00;;;28.67;;
4762;SDS011;2395;50.738;7.122;2022-07-12T01:44:51;34.20;;;29.10;;
4762;SDS011;2395;50.738;7.122;2022-07-12T01:47:20;32.10;;;28.80;;
4762;SDS011;2395;50.738;7.122;2022-07-12T01:49:50;31.80;;;28.50;;
4762;SDS011;2395;50.738;7.122;2022-07-12T01:52:17;32.67;;;29.23;;
4762;SDS011;2395;50.738;7.122;2022-07-12T01:54:46;32.80;;;29.27;;
4762;SDS011;2395;50.738;7.122;2022-07-12T01:57:14;33.03;;;29.43;;
4762;SDS011;2395;50.738;7.122;2022-07-12T01:59:43;34.60;;;29.80;;
4762;SDS011;2395;50.738;7.122;2022-07-12T02:02:11;36.80;;;30.47;;
4762;SDS011;2395;50.738;7.122;2022-07-12T02:04:38;34.67;;;31.00;;
4762;SDS011;2395;50.738;7.122;2022-07-12T02:07:05;33.13;;;29.63;;
4762;SDS011;2395;50.738;7.122;2022-07-12T02:09:33;34.60;;;30.27;;
4762;SDS011;2395;50.738;7.122;2022-07-12T02:12:00;32.47;;;29.00;;
4762;SDS011;2395;50.738;7.122;2022-07-12T02:14:27;33.57;;;30.13;;
4762;SDS011;2395;50.738;7.122;2022-07-12T02:16:55;33.10;;;29.60;;
4762;SDS011;2395;50.738;7.122;2022-07-12T02:19:22;34.20;;;30.60;;
4762;SDS011;2395;50.738;7.122;2022-07-12T02:21:49;35.73;;;31.77;;
4762;SDS011;2395;50.738;7.122;2022-07-12T02:24:16;31.60;;;28.30;;
4762;SDS011;2395;50.738;7.122;2022-07-12T02:26:43;33.33;;;29.83;;
4762;SDS011;2395;50.738;7.122;2022-07-12T02:29:10;31.73;;;28.37;;
4762;SDS011;2395;50.738;7.122;2022-07-12T02:31:37;32.57;;;28.93;;
4762;SDS011;2395;50.738;7.122;2022-07-12T02:34:06;32.47;;;29.07;;
4762;SDS011;2395;50.738;7.122;2022-07-12T02:36:33;32.30;;;28.90;;
4762;SDS011;2395;50.738;7.122;2022-07-12T02:39:00;36.27;;;30.67;;
4762;SDS011;2395;50.738;7.122;2022-07-12T02:41:29;32.77;;;29.23;;
4762;SDS011;2395;50.738;7.122;2022-07-12T02:43:56;31.13;;;27.83;;
4762;SDS011;2395;50.738;7.122;2022-07-12T02:46:24;32.67;;;29.27;;
4762;SDS011;2395;50.738;7.122;2022-07-12T02:48:51;35.50;;;31.03;;
4762;SDS011;2395;50.738;7.122;2022-07-12T02:51:20;33.53;;;29.97;;
4762;SDS011;2395;50.738;7.122;2022-07-12T02:53:47;32.20;;;28.80;;
4762;SDS011;2395;50.738;7.122;2022-07-12T02:56:14;32.60;;;29.10;;
4762;SDS011;2395;50.738;7.122;2022-07-12T02:58:41;33.17;;;29.73;;
4762;SDS011;2395;50.738;7.122;2022-07-12T03:01:08;32.17;;;28.87;;
4762;SDS011;2395;50.738;7.122;2022-07-12T03:03:36;32.70;;;29.27;;
4762;SDS011;2395;50.738;7.122;2022-07-12T03:06:03;34.73;;;30.93;;
4762;SDS011;2395;50.738;7.122;2022-07-12T03:08:32;34.63;;;30.93;;
4762;SDS011;2395;50.738;7.122;2022-07-12T03:10:59;33.57;;;30.13;;
4762;SDS011;2395;50.738;7.122;2022-07-12T03:13:26;32.83;;;29.33;;
4762;SDS011;2395;50.738;7.122;2022-07-12T03:15:53;31.37;;;28.07;;
4762;SDS011;2395;50.738;7.122;2022-07-12T03:18:20;33.93;;;30.37;;
4762;SDS011;2395;50.738;7.122;2022-07-12T03:20:47;32.77;;;29.27;;
4762;SDS011;2395;50.738;7.122;2022-07-12T03:23:15;33.63;;;30.00;;
4762;SDS011;2395;50.738;7.122;2022-07-12T03:25:43;32.80;;;29.30;;
4762;SDS011;2395;50.738;7.122;2022-07-12T03:28:10;32.67;;;29.17;;
4762;SDS011;2395;50.738;7.122;2022-07-12T03:30:37;33.30;;;28.87;;
4762;SDS011;2395;50.738;7.122;2022-07-12T03:33:04;32.10;;;28.80;;
4762;SDS011;2395;50.738;7.122;2022-07-12T03:35:32;34.33;;;30.63;;
4762;SDS011;2395;50.738;7.122;2022-07-12T03:38:00;32.83;;;29.43;;
4762;SDS011;2395;50.738;7.122;2022-07-12T03:40:30;31.93;;;28.63;;
4762;SDS011;2395;50.738;7.122;2022-07-12T03:43:00;31.60;;;28.20;;
4762;SDS011;2395;50.738;7.122;2022-07-12T03:45:27;32.57;;;28.43;;
4762;SDS011;2395;50.738;7.122;2022-07-12T03:47:55;31.63;;;28.40;;
4762;SDS011;2395;50.738;7.122;2022-07-12T03:50:21;34.73;;;30.97;;
4762;SDS011;2395;50.738;7.122;2022-07-12T03:52:49;33.83;;;30.30;;
4762;SDS011;2395;50.738;7.122;2022-07-12T03:55:15;35.40;;;30.37;;
4762;SDS011;2395;50.738;7.122;2022-07-12T03:57:42;36.33;;;31.43;;
4762;SDS011;2395;50.738;7.122;2022-07-12T04:00:11;31.07;;;27.77;;
4762;SDS011;2395;50.738;7.122;2022-07-12T04:02:39;32.97;;;29.47;;
4762;SDS011;2395;50.738;7.122;2022-07-12T04:05:08;32.43;;;29.03;;
4762;SDS011;2395;50.738;7.122;2022-07-12T04:07:37;32.23;;;28.70;;
4762;SDS011;2395;50.738;7.122;2022-07-12T04:10:05;37.93;;;29.47;;
4762;SDS011;2395;50.738;7.122;2022-07-12T04:12:34;33.67;;;30.17;;
4762;SDS011;2395;50.738;7.122;2022-07-12T04:15:02;32.90;;;28.87;;
4762;SDS011;2395;50.738;7.122;2022-07-12T04:17:32;33.10;;;29.80;;
4762;SDS011;2395;50.738;7.122;2022-07-12T04:19:59;30.20;;;27.10;;
4762;SDS011;2395;50.738;7.122;2022-07-12T04:22:26;29.63;;;26.63;;
4762;SDS011;2395;50.738;7.122;2022-07-12T04:24:54;26.33;;;23.60;;
4762;SDS011;2395;50.738;7.122;2022-07-12T04:27:21;28.43;;;25.43;;
4762;SDS011;2395;50.738;7.122;2022-07-12T04:29:48;25.20;;;22.70;;
4762;SDS011;2395;50.738;7.122;2022-07-12T04:32:15;25.03;;;22.50;;
4762;SDS011;2395;50.738;7.122;2022-07-12T04:34:43;26.10;;;23.27;;
4762;SDS011;2395;50.738;7.122;2022-07-12T04:37:10;26.83;;;23.93;;
4762;SDS011;2395;50.738;7.122;2022-07-12T04:39:37;25.30;;;22.70;;
4762;SDS011;2395;50.738;7.122;2022-07-12T04:42:04;27.27;;;24.43;;
4762;SDS011;2395;50.738;7.122;2022-07-12T04:44:31;24.23;;;21.53;;
4762;SDS011;2395;50.738;7.122;2022-07-12T04:46:58;24.20;;;21.70;;
4762;SDS011;2395;50.738;7.122;2022-07-12T04:49:25;24.40;;;21.90;;
4762;SDS011;2395;50.738;7.122;2022-07-12T04:51:54;24.83;;;22.33;;
4762;SDS011;2395;50.738;7.122;2022-07-12T04:54:21;23.93;;;21.60;;
4762;SDS011;2395;50.738;7.122;2022-07-12T04:56:48;25.00;;;22.40;;
4762;SDS011;2395;50.738;7.122;2022-07-12T04:59:15;26.20;;;22.17;;
4762;SDS011;2395;50.738;7.122;2022-07-12T05:01:48;26.70;;;22.90;;
4762;SDS011;2395;50.738;7.122;2022-07-12T05:04:15;24.90;;;22.23;;
4762;SDS011;2395;50.738;7.122;2022-07-12T05:06:46;23.67;;;21.23;;
4762;SDS011;2395;50.738;7.122;2022-07-12T05:09:15;24.50;;;21.97;;
4762;SDS011;2395;50.738;7.122;2022-07-12T05:11:42;23.90;;;21.40;;
4762;SDS011;2395;50.738;7.122;2022-07-12T05:14:12;22.27;;;20.00;;
4762;SDS011;2395;50.738;7.122;2022-07-12T05:16:39;26.60;;;22.97;;
4762;SDS011;2395;50.738;7.122;2022-07-12T05:19:06;25.10;;;22.40;;
4762;SDS011;2395;50.738;7.122;2022-07-12T05:21:33;25.83;;;23.13;;
4762;SDS011;2395;50.738;7.122;2022-07-12T05:24:01;27.57;;;24.77;;
4762;SDS011;2395;50.738;7.122;2022-07-12T05:26:32;26.17;;;23.47;;
4762;SDS011;2395;50.738;7.122;2022-07-12T05:29:00;25.47;;;22.87;;
4762;SDS011;2395;50.738;7.122;2022-07-12T05:31:27;25.57;;;22.97;;
4762;SDS011;2395;50.738;7.122;2022-07-12T05:33:54;27.17;;;24.47;;
4762;SDS011;2395;50.738;7.122;2022-07-12T05:36:21;26.00;;;23.30;;
4762;SDS011;2395;50.738;7.122;2022-07-12T05:38:48;26.80;;;23.90;;
4762;SDS011;2395;50.738;7.122;2022-07-12T05:41:15;25.27;;;22.73;;
4762;SDS011;2395;50.738;7.122;2022-07-12T05:43:44;26.23;;;23.53;;
4762;SDS011;2395;50.738;7.122;2022-07-12T05:46:11;29.27;;;26.07;;
4762;SDS011;2395;50.738;7.122;2022-07-12T05:48:38;25.80;;;23.10;;
4762;SDS011;2395;50.738;7.122;2022-07-12T05:51:05;24.73;;;22.33;;
4762;SDS011;2395;50.738;7.122;2022-07-12T05:53:49;26.03;;;23.43;;
4762;SDS011;2395;50.738;7.122;2022-07-12T05:56:17;28.13;;;25.13;;
4762;SDS011;2395;50.738;7.122;2022-07-12T05:58:45;27.60;;;24.77;;
4762;SDS011;2395;50.738;7.122;2022-07-12T06:01:12;27.73;;;24.83;;
4762;SDS011;2395;50.738;7.122;2022-07-12T06:03:39;27.40;;;24.50;;
4762;SDS011;2395;50.738;7.122;2022-07-12T06:06:06;24.93;;;22.20;;
4762;SDS011;2395;50.738;7.122;2022-07-12T06:08:33;26.90;;;24.03;;
4762;SDS011;2395;50.738;7.122;2022-07-12T06:11:00;26.97;;;23.77;;
4762;SDS011;2395;50.738;7.122;2022-07-12T06:13:27;27.07;;;24.30;;
4762;SDS011;2395;50.738;7.122;2022-07-12T06:15:56;27.57;;;24.77;;
4762;SDS011;2395;50.738;7.122;2022-07-12T06:18:24;23.93;;;21.43;;
4762;SDS011;2395;50.738;7.122;2022-07-12T06:20:51;25.10;;;22.60;;
4762;SDS011;2395;50.738;7.122;2022-07-12T06:23:18;24.30;;;21.83;;
4762;SDS011;2395;50.738;7.122;2022-07-12T06:25:45;25.20;;;22.53;;
4762;SDS011;2395;50.738;7.122;2022-07-12T06:28:12;24.93;;;22.23;;
4762;SDS011;2395;50.738;7.122;2022-07-12T06:30:40;26.23;;;23.43;;
4762;SDS011;2395;50.738;7.122;2022-07-12T06:33:08;25.67;;;22.87;;
4762;SDS011;2395;50.738;7.122;2022-07-12T06:35:35;26.77;;;21.23;;
4762;SDS011;2395;50.738;7.122;2022-07-12T06:38:02;24.03;;;21.53;;
4762;SDS011;2395;50.738;7.122;2022-07-12T06:40:29;25.37;;;22.53;;
4762;SDS011;2395;50.738;7.122;2022-07-12T06:42:57;26.07;;;23.37;;
4762;SDS011;2395;50.738;7.122;2022-07-12T06:45:24;24.77;;;22.27;;
4762;SDS011;2395;50.738;7.122;2022-07-12T06:47:51;26.00;;;23.40;;
4762;SDS011;2395;50.738;7.122;2022-07-12T06:50:20;27.63;;;23.30;;
4762;SDS011;2395;50.738;7.122;2022-07-12T06:52:47;25.03;;;22.37;;
4762;SDS011;2395;50.738;7.122;2022-07-12T06:55:14;25.30;;;22.67;;
4762;SDS011;2395;50.738;7.122;2022-07-12T06:57:41;24.40;;;21.90;;
4762;SDS011;2395;50.738;7.122;2022-07-12T07:00:08;24.10;;;21.60;;
4762;SDS011;2395;50.738;7.122;2022-07-12T07:02:37;24.63;;;22.07;;
4762;SDS011;2395;50.738;7.122;2022-07-12T07:05:05;25.53;;;22.70;;
4762;SDS011;2395;50.738;7.122;2022-07-12T07:07:34;23.53;;;21.03;;
4762;SDS011;2395;50.738;7.122;2022-07-12T07:10:02;24.73;;;22.17;;
4762;SDS011;2395;50.738;7.122;2022-07-12T07:12:30;22.90;;;20.47;;
4762;SDS011;2395;50.738;7.122;2022-07-12T07:14:57;23.40;;;21.00;;
4762;SDS011;2395;50.738;7.122;2022-07-12T07:17:24;22.33;;;20.03;;
4762;SDS011;2395;50.738;7.122;2022-07-12T07:19:51;22.27;;;19.90;;
4762;SDS011;2395;50.738;7.122;2022-07-12T07:22:19;21.17;;;18.90;;
4762;SDS011;2395;50.738;7.122;2022-07-12T07:24:47;21.37;;;19.10;;
4762;SDS011;2395;50.738;7.122;2022-07-12T07:27:14;18.10;;;16.20;;
4762;SDS011;2395;50.738;7.122;2022-07-12T07:29:41;18.57;;;16.17;;
4762;SDS011;2395;50.738;7.122;2022-07-12T07:32:26;17.50;;;15.60;;
4762;SDS011;2395;50.738;7.122;2022-07-12T07:34:53;17.30;;;15.20;;
4762;SDS011;2395;50.738;7.122;2022-07-12T07:37:20;15.63;;;14.10;;
4762;SDS011;2395;50.738;7.122;2022-07-12T07:39:49;16.10;;;14.40;;
4762;SDS011;2395;50.738;7.122;2022-07-12T07:42:16;14.53;;;12.80;;
4762;SDS011;2395;50.738;7.122;2022-07-12T07:44:43;12.97;;;11.60;;
4762;SDS011;2395;50.738;7.122;2022-07-12T07:47:11;12.57;;;11.27;;
4762;SDS011;2395;50.738;7.122;2022-07-12T07:49:37;11.93;;;10.10;;
4762;SDS011;2395;50.738;7.122;2022-07-12T07:52:05;12.10;;;10.70;;
4762;SDS011;2395;50.738;7.122;2022-07-12T07:54:33;12.60;;;11.30;;
4762;SDS011;2395;50.738;7.122;2022-07-12T07:57:01;11.93;;;10.73;;
4762;SDS011;2395;50.738;7.122;2022-07-12T07:59:29;12.57;;;11.07;;
4762;SDS011;2395;50.738;7.122;2022-07-12T08:01:56;11.87;;;10.53;;
4762;SDS011;2395;50.738;7.122;2022-07-12T08:04:23;12.80;;;10.60;;
4762;SDS011;2395;50.738;7.122;2022-07-12T08:06:50;11.27;;;9.80;;
4762;SDS011;2395;50.738;7.122;2022-07-12T08:09:17;10.13;;;9.20;;
4762;SDS011;2395;50.738;7.122;2022-07-12T08:11:44;10.70;;;9.70;;
4762;SDS011;2395;50.738;7.122;2022-07-12T08:14:12;10.93;;;9.00;;
4762;SDS011;2395;50.738;7.122;2022-07-12T08:16:39;9.70;;;8.70;;
4762;SDS011;2395;50.738;7.122;2022-07-12T08:19:06;10.73;;;7.50;;
4762;SDS011;2395;50.738;7.122;2022-07-12T08:21:33;9.30;;;8.40;;
4762;SDS011;2395;50.738;7.122;2022-07-12T08:24:00;9.30;;;8.23;;
4762;SDS011;2395;50.738;7.122;2022-07-12T08:26:27;9.83;;;8.13;;
4762;SDS011;2395;50.738;7.122;2022-07-12T08:28:54;14.47;;;8.63;;
4762;SDS011;2395;50.738;7.122;2022-07-12T08:31:22;8.47;;;7.30;;
4762;SDS011;2395;50.738;7.122;2022-07-12T08:33:50;7.40;;;6.70;;
4762;SDS011;2395;50.738;7.122;2022-07-12T08:36:17;10.17;;;8.10;;
4762;SDS011;2395;50.738;7.122;2022-07-12T08:38:44;8.27;;;7.47;;
4762;SDS011;2395;50.738;7.122;2022-07-12T08:41:12;8.30;;;7.47;;
4762;SDS011;2395;50.738;7.122;2022-07-12T08:43:40;9.37;;;6.67;;
4762;SDS011;2395;50.738;7.122;2022-07-12T08:46:08;7.73;;;6.50;;
4762;SDS011;2395;50.738;7.122;2022-07-12T08:48:39;8.30;;;7.20;;
4762;SDS011;2395;50.738;7.122;2022-07-12T08:51:08;8.83;;;6.30;;
4762;SDS011;2395;50.738;7.122;2022-07-12T08:53:37;6.20;;;5.60;;
4762;SDS011;2395;50.738;7.122;2022-07-12T08:56:05;6.17;;;5.57;;
4762;SDS011;2395;50.738;7.122;2022-07-12T08:58:33;5.80;;;4.80;;
4762;SDS011;2395;50.738;7.122;2022-07-12T09:01:00;5.23;;;4.73;;
4762;SDS011;2395;50.738;7.122;2022-07-12T09:03:27;5.53;;;4.00;;
4762;SDS011;2395;50.738;7.122;2022-07-12T09:05:56;4.37;;;3.50;;
4762;SDS011;2395;50.738;7.122;2022-07-12T09:08:25;3.40;;;2.60;;
4762;SDS011;2395;50.738;7.122;2022-07-12T09:10:55;3.30;;;2.93;;
4762;SDS011;2395;50.738;7.122;2022-07-12T09:16:14;4.67;;;3.80;;
4762;SDS011;2395;50.738;7.122;2022-07-12T09:18:44;5.73;;;4.33;;
4762;SDS011;2395;50.738;7.122;2022-07-12T09:21:21;3.63;;;3.33;;
4762;SDS011;2395;50.738;7.122;2022-07-12T09:23:55;3.50;;;3.20;;
4762;SDS011;2395;50.738;7.122;2022-07-12T09:26:23;4.10;;;3.60;;
4762;SDS011;2395;50.738;7.122;2022-07-12T09:29:03;7.60;;;4.83;;
4762;SDS011;2395;50.738;7.122;2022-07-12T09:31:38;7.17;;;4.50;;
4762;SDS011;2395;50.738;7.122;2022-07-12T09:34:27;3.97;;;3.57;;
4762;SDS011;2395;50.738;7.122;2022-07-12T09:37:13;4.90;;;2.27;;
4762;SDS011;2395;50.738;7.122;2022-07-12T09:39:40;5.47;;;3.13;;
4762;SDS011;2395;50.738;7.122;2022-07-12T09:42:09;4.00;;;2.87;;
4762;SDS011;2395;50.738;7.122;2022-07-12T09:44:38;3.43;;;3.10;;
4762;SDS011;2395;50.738;7.122;2022-07-12T09:47:09;3.53;;;3.23;;
4762;SDS011;2395;50.738;7.122;2022-07-12T09:49:38;3.63;;;3.10;;
4762;SDS011;2395;50.738;7.122;2022-07-12T09:52:06;3.77;;;3.37;;
4762;SDS011;2395;50.738;7.122;2022-07-12T09:54:40;6.23;;;4.10;;
4762;SDS011;2395;50.738;7.122;2022-07-12T09:57:13;4.20;;;3.47;;
4762;SDS011;2395;50.738;7.122;2022-07-12T09:59:47;5.70;;;2.70;;
4762;SDS011;2395;50.738;7.122;2022-07-12T10:02:17;7.40;;;2.80;;
4762;SDS011;2395;50.738;7.122;2022-07-12T10:04:45;5.23;;;2.90;;
4762;SDS011;2395;50.738;7.122;2022-07-12T10:07:14;6.83;;;2.73;;
4762;SDS011;2395;50.738;7.122;2022-07-12T10:09:43;4.80;;;3.00;;
4762;SDS011;2395;50.738;7.122;2022-07-12T10:12:14;3.63;;;3.30;;
4762;SDS011;2395;50.738;7.122;2022-07-12T10:14:44;3.43;;;3.00;;
4762;SDS011;2395;50.738;7.122;2022-07-12T10:17:12;4.53;;;3.80;;
4762;SDS011;2395;50.738;7.122;2022-07-12T10:19:47;4.37;;;2.97;;
4762;SDS011;2395;50.738;7.122;2022-07-12T10:22:18;5.33;;;4.20;;
4762;SDS011;2395;50.738;7.122;2022-07-12T10:24:54;3.70;;;3.20;;
4762;SDS011;2395;50.738;7.122;2022-07-12T10:27:29;4.20;;;3.30;;
4762;SDS011;2395;50.738;7.122;2022-07-12T10:30:14;3.80;;;2.77;;
4762;SDS011;2395;50.738;7.122;2022-07-12T10:32:47;3.07;;;2.37;;
4762;SDS011;2395;50.738;7.122;2022-07-12T10:35:18;4.40;;;2.20;;
4762;SDS011;2395;50.738;7.122;2022-07-12T10:40:48;3.40;;;2.90;;
4762;SDS011;2395;50.738;7.122;2022-07-12T10:46:23;3.70;;;2.70;;
4762;SDS011;2395;50.738;7.122;2022-07-12T10:48:51;2.87;;;2.43;;
4762;SDS011;2395;50.738;7.122;2022-07-12T10:54:46;2.93;;;2.20;;
4762;SDS011;2395;50.738;7.122;2022-07-12T10:57:46;3.60;;;2.67;;
4762;SDS011;2395;50.738;7.122;2022-07-12T11:00:19;3.27;;;2.57;;
4762;SDS011;2395;50.738;7.122;2022-07-12T11:02:48;2.93;;;2.73;;
4762;SDS011;2395;50.738;7.122;2022-07-12T11:05:15;2.53;;;2.07;;
4762;SDS011;2395;50.738;7.122;2022-07-12T11:07:42;2.83;;;2.57;;
4762;SDS011;2395;50.738;7.122;2022-07-12T11:10:11;6.40;;;2.10;;
4762;SDS011;2395;50.738;7.122;2022-07-12T11:12:39;4.43;;;1.80;;
4762;SDS011;2395;50.738;7.122;2022-07-12T11:15:08;3.30;;;2.47;;
4762;SDS011;2395;50.738;7.122;2022-07-12T11:17:37;7.53;;;2.30;;
4762;SDS011;2395;50.738;7.122;2022-07-12T11:20:06;2.90;;;2.30;;
4762;SDS011;2395;50.738;7.122;2022-07-12T11:22:37;2.20;;;2.00;;
4762;SDS011;2395;50.738;7.122;2022-07-12T11:25:07;3.50;;;2.27;;
4762;SDS011;2395;50.738;7.122;2022-07-12T11:27:37;2.90;;;2.30;;
4762;SDS011;2395;50.738;7.122;2022-07-12T11:30:08;2.77;;;2.57;;
4762;SDS011;2395;50.738;7.122;2022-07-12T11:32:36;3.33;;;2.27;;
4762;SDS011;2395;50.738;7.122;2022-07-12T11:38:34;2.50;;;2.20;;
4762;SDS011;2395;50.738;7.122;2022-07-12T11:41:03;5.23;;;2.30;;
4762;SDS011;2395;50.738;7.122;2022-07-12T11:43:32;4.97;;;2.50;;
4762;SDS011;2395;50.738;7.122;2022-07-12T11:46:03;2.57;;;2.00;;
4762;SDS011;2395;50.738;7.122;2022-07-12T11:48:31;3.57;;;2.20;;
4762;SDS011;2395;50.738;7.122;2022-07-12T11:51:00;2.37;;;2.00;;
4762;SDS011;2395;50.738;7.122;2022-07-12T11:53:29;2.63;;;2.13;;
4762;SDS011;2395;50.738;7.122;2022-07-12T11:55:57;2.27;;;1.73;;
4762;SDS011;2395;50.738;7.122;2022-07-12T11:58:27;2.50;;;2.27;;
4762;SDS011;2395;50.738;7.122;2022-07-12T12:00:55;2.40;;;1.80;;
4762;SDS011;2395;50.738;7.122;2022-07-12T12:03:24;2.73;;;1.90;;
4762;SDS011;2395;50.738;7.122;2022-07-12T12:05:52;2.47;;;1.60;;
4762;SDS011;2395;50.738;7.122;2022-07-12T12:08:20;3.30;;;1.90;;
4762;SDS011;2395;50.738;7.122;2022-07-12T12:10:52;2.50;;;1.90;;
4762;SDS011;2395;50.738;7.122;2022-07-12T12:13:22;4.13;;;1.90;;
4762;SDS011;2395;50.738;7.122;2022-07-12T12:15:51;4.27;;;1.90;;
4762;SDS011;2395;50.738;7.122;2022-07-12T12:18:29;6.50;;;1.93;;
4762;SDS011;2395;50.738;7.122;2022-07-12T12:21:00;6.03;;;1.67;;
4762;SDS011;2395;50.738;7.122;2022-07-12T12:23:29;3.80;;;3.40;;
4762;SDS011;2395;50.738;7.122;2022-07-12T12:26:09;2.87;;;1.80;;
4762;SDS011;2395;50.738;7.122;2022-07-12T12:28:40;1.90;;;1.70;;
4762;SDS011;2395;50.738;7.122;2022-07-12T12:31:10;2.77;;;1.60;;
4762;SDS011;2395;50.738;7.122;2022-07-12T12:33:40;2.53;;;1.97;;
4762;SDS011;2395;50.738;7.122;2022-07-12T12:36:12;1.90;;;1.63;;
4762;SDS011;2395;50.738;7.122;2022-07-12T12:38:42;5.40;;;1.83;;
4762;SDS011;2395;50.738;7.122;2022-07-12T12:41:09;2.00;;;1.70;;
4762;SDS011;2395;50.738;7.122;2022-07-12T12:43:37;1.87;;;1.63;;
4762;SDS011;2395;50.738;7.122;2022-07-12T12:46:05;2.70;;;1.67;;
4762;SDS011;2395;50.738;7.122;2022-07-12T12:48:33;2.10;;;1.90;;
4762;SDS011;2395;50.738;7.122;2022-07-12T12:51:06;1.97;;;1.70;;
4762;SDS011;2395;50.738;7.122;2022-07-12T12:53:35;3.03;;;1.80;;
4762;SDS011;2395;50.738;7.122;2022-07-12T12:56:05;4.03;;;1.70;;
4762;SDS011;2395;50.738;7.122;2022-07-12T12:58:35;4.23;;;1.60;;
4762;SDS011;2395;50.738;7.122;2022-07-12T13:01:04;2.20;;;1.77;;
4762;SDS011;2395;50.738;7.122;2022-07-12T13:03:32;2.63;;;1.80;;
4762;SDS011;2395;50.738;7.122;2022-07-12T13:05:59;2.30;;;1.50;;
4762;SDS011;2395;50.738;7.122;2022-07-12T13:08:28;2.27;;;1.73;;
4762;SDS011;2395;50.738;7.122;2022-07-12T13:10:55;2.60;;;1.80;;
4762;SDS011;2395;50.738;7.122;2022-07-12T13:13:40;2.10;;;1.70;;
4762;SDS011;2395;50.738;7.122;2022-07-12T13:16:07;2.20;;;1.90;;
4762;SDS011;2395;50.738;7.122;2022-07-12T13:18:34;2.60;;;1.70;;
4762;SDS011;2395;50.738;7.122;2022-07-12T13:21:01;4.73;;;1.90;;
4762;SDS011;2395;50.738;7.122;2022-07-12T13:23:30;3.23;;;1.87;;
4762;SDS011;2395;50.738;7.122;2022-07-12T13:25:57;2.57;;;2.00;;
4762;SDS011;2395;50.738;7.122;2022-07-12T13:28:24;2.60;;;1.73;;
4762;SDS011;2395;50.738;7.122;2022-07-12T13:30:51;4.03;;;1.60;;
4762;SDS011;2395;50.738;7.122;2022-07-12T13:33:20;3.50;;;1.93;;
4762;SDS011;2395;50.738;7.122;2022-07-12T13:35:48;2.13;;;1.50;;
4762;SDS011;2395;50.738;7.122;2022-07-12T13:38:15;2.30;;;1.97;;
4762;SDS011;2395;50.738;7.122;2022-07-12T13:40:43;2.03;;;1.73;;
4762;SDS011;2395;50.738;7.122;2022-07-12T13:43:11;5.10;;;2.00;;
4762;SDS011;2395;50.738;7.122;2022-07-12T13:45:38;2.10;;;1.90;;
4762;SDS011;2395;50.738;7.122;2022-07-12T13:48:09;3.17;;;2.30;;
4762;SDS011;2395;50.738;7.122;2022-07-12T13:50:36;4.03;;;1.87;;
4762;SDS011;2395;50.738;7.122;2022-07-12T13:53:03;3.23;;;1.67;;
4762;SDS011;2395;50.738;7.122;2022-07-12T13:55:32;1.87;;;1.60;;
4762;SDS011;2395;50.738;7.122;2022-07-12T13:58:01;2.47;;;1.70;;
4762;SDS011;2395;50.738;7.122;2022-07-12T14:00:29;2.37;;;1.90;;
4762;SDS011;2395;50.738;7.122;2022-07-12T14:02:56;2.87;;;1.73;;
4762;SDS011;2395;50.738;7.122;2022-07-12T14:05:23;2.60;;;1.90;;
4762;SDS011;2395;50.738;7.122;2022-07-12T14:07:51;1.70;;;1.60;;
4762;SDS011;2395;50.738;7.122;2022-07-12T14:10:18;3.40;;;1.80;;
4762;SDS011;2395;50.738;7.122;2022-07-12T14:12:46;2.10;;;1.50;;
4762;SDS011;2395;50.738;7.122;2022-07-12T14:15:14;1.70;;;1.40;;
4762;SDS011;2395;50.738;7.122;2022-07-12T14:18:01;2.40;;;1.70;;
4762;SDS011;2395;50.738;7.122;2022-07-12T14:20:31;2.73;;;1.53;;
4762;SDS011;2395;50.738;7.122;2022-07-12T14:22:59;2.43;;;1.70;;
4762;SDS011;2395;50.738;7.122;2022-07-12T14:25:26;5.20;;;1.60;;
4762;SDS011;2395;50.738;7.122;2022-07-12T14:27:53;2.27;;;1.77;;
4762;SDS011;2395;50.738;7.122;2022-07-12T14:30:22;1.80;;;1.40;;
4762;SDS011;2395;50.738;7.122;2022-07-12T14:32:49;2.70;;;2.10;;
4762;SDS011;2395;50.738;7.122;2022-07-12T14:35:16;2.77;;;1.70;;
4762;SDS011;2395;50.738;7.122;2022-07-12T14:37:43;4.83;;;1.60;;
4762;SDS011;2395;50.738;7.122;2022-07-12T14:40:10;1.90;;;1.50;;
4762;SDS011;2395;50.738;7.122;2022-07-12T14:42:37;2.43;;;1.80;;
4762;SDS011;2395;50.738;7.122;2022-07-12T14:45:06;2.33;;;1.60;;
4762;SDS011;2395;50.738;7.122;2022-07-12T14:47:35;2.33;;;1.60;;
4762;SDS011;2395;50.738;7.122;2022-07-12T14:50:02;8.90;;;5.80;;
4762;SDS011;2395;50.738;7.122;2022-07-12T14:52:32;2.20;;;1.77;;
4762;SDS011;2395;50.738;7.122;2022-07-12T14:54:59;1.90;;;1.53;;
4762;SDS011;2395;50.738;7.122;2022-07-12T14:57:26;3.20;;;1.60;;
4762;SDS011;2395;50.738;7.122;2022-07-12T14:59:53;2.50;;;1.50;;
4762;SDS011;2395;50.738;7.122;2022-07-12T15:02:21;4.43;;;1.67;;
4762;SDS011;2395;50.738;7.122;2022-07-12T15:04:49;2.40;;;1.80;;
4762;SDS011;2395;50.738;7.122;2022-07-12T15:07:16;2.10;;;1.40;;
4762;SDS011;2395;50.738;7.122;2022-07-12T15:09:44;2.30;;;1.63;;
4762;SDS011;2395;50.738;7.122;2022-07-12T15:12:11;2.63;;;1.83;;
4762;SDS011;2395;50.738;7.122;2022-07-12T15:14:39;2.30;;;1.87;;
4762;SDS011;2395;50.738;7.122;2022-07-12T15:17:06;4.43;;;2.00;;
4762;SDS011;2395;50.738;7.122;2022-07-12T15:19:33;1.90;;;1.60;;
4762;SDS011;2395;50.738;7.122;2022-07-12T15:22:02;10.67;;;7.43;;
4762;SDS011;2395;50.738;7.122;2022-07-12T15:24:29;4.10;;;2.00;;